WXM80 ListenWXM80 Stop

You find our weather info also at:

UK Metoffice

WeatherCloud

Weather Underground

Northeastern Weather Network

AWEKAS

Citizen Weather Observer Program (CWOP)

HAMweather, WeatherForYou, PWS Weather


Weather Underground History page Text

Daily Summary for November 2, 2017 Units:  Metric    English   Both
« Previous Day
Next Day »
Daily Weekly Monthly Yearly Custom
  High: Low: Average:
Temperature: 23.2 °C 10.6 °C 17.8 °C
Dew Point: 18.5 °C 9.1 °C 16 °C
Humidity: 98 % 71 % 89 %
Wind Speed: 8.5 km/h 0 km/h 1.6 km/h
Wind Gust: 16.7 km/h - -
Wind:- - South
Pressure: 1026.6 hPa 1014.4 hPa -
Precipitation: 1.27 mm    
Historical Graphs
 
 
Tabular Data for November 2, 2017
Time Temperature Dew Point Pressure Wind Wind Speed Wind Gust Humidity Rainfall Rate (Hourly)
00:00 10.6 °C 9.1 °C 1026.6 hPa SE 1.8 km/h 5.6 km/h 90 % 0 mm
00:05 10.6 °C 9.2 °C 1026.3 hPa SE 3.7 km/h 5.6 km/h 91 % 0 mm
00:10 10.7 °C 9.3 °C 1026.3 hPa SE 1.9 km/h 5.6 km/h 91 % 0 mm
00:15 10.8 °C 9.6 °C 1026.6 hPa SE 2.4 km/h 5.6 km/h 92 % 0 mm
00:20 11.1 °C 10.2 °C 1026.6 hPa Calm   1.9 km/h 94 % 0 mm
00:25 11.3 °C 10.6 °C 1026.6 hPa SE 0.3 km/h 1.9 km/h 95 % 0 mm
00:30 11.5 °C 10.7 °C 1026.6 hPa SE 1.6 km/h 3.7 km/h 95 % 0 mm
00:35 11.7 °C 10.9 °C 1026.6 hPa SE 0.6 km/h 1.9 km/h 95 % 0 mm
00:40 11.8 °C 11.1 °C 1026.6 hPa Calm   1.6 km/h 95 % 0 mm
00:45 11.9 °C 11.3 °C 1026.6 hPa SE 0.5 km/h 1.9 km/h 96 % 0 mm
00:50 12.1 °C 11.4 °C 1026.6 hPa SE 0.8 km/h 1.9 km/h 96 % 0 mm
00:55 12.2 °C 11.6 °C 1026.6 hPa Calm     96 % 0 mm
01:00 12.3 °C 11.7 °C 1026.6 hPa Calm     96 % 0 mm
01:05 12.3 °C 11.7 °C 1026.3 hPa Calm     96 % 0 mm
01:10 12.4 °C 11.8 °C 1026.6 hPa Calm     96 % 0 mm
01:15 12.5 °C 11.9 °C 1026.3 hPa Calm     96 % 0 mm
01:20 12.5 °C 11.9 °C 1026.3 hPa Calm     96 % 0 mm
01:25 12.6 °C 11.9 °C 1026.3 hPa Calm     96 % 0 mm
01:30 12.6 °C 11.9 °C 1026.3 hPa Calm   3.7 km/h 96 % 0 mm
01:36 12.6 °C 12 °C 1026.3 hPa Calm   3.2 km/h 96 % 0 mm
01:41 12.7 °C 12.1 °C 1026.3 hPa SE 1.6 km/h 6.4 km/h 96 % 0 mm
01:46 12.8 °C 12.3 °C 1026.3 hPa SE 3.2 km/h 6.4 km/h 97 % 0 mm
01:51 13.1 °C 12.6 °C 1026.3 hPa SE 3.2 km/h 9.7 km/h 97 % 0 mm
01:56 13.4 °C 12.9 °C 1026.3 hPa Calm   4.8 km/h 97 % 0 mm
02:01 13.8 °C 13.3 °C 1026.3 hPa SE 2.1 km/h 6.4 km/h 97 % 0 mm
02:06 14.1 °C 13.6 °C 1026.3 hPa Calm   1.9 km/h 97 % 0 mm
02:11 14.3 °C 13.8 °C 1026.3 hPa SSE 2.4 km/h 5.6 km/h 97 % 0 mm
02:16 14.6 °C 14.3 °C 1026.3 hPa SSE 3.7 km/h 5.6 km/h 98 % 0 mm
02:21 14.8 °C 14.3 °C 1026.3 hPa SSE 1.3 km/h 3.7 km/h 97 % 0 mm
02:26 14.9 °C 14.4 °C 1026.3 hPa SSE 1.6 km/h 3.7 km/h 97 % 0 mm
02:31 14.9 °C 14.6 °C 1026.3 hPa SSE 2.1 km/h 5.6 km/h 98 % 0 mm
02:36 15.1 °C 14.7 °C 1026.6 hPa SSE 0.3 km/h 3.7 km/h 98 % 0 mm
02:41 15.1 °C 14.6 °C 1026.3 hPa Calm     97 % 0 mm
02:46 15.1 °C 14.6 °C 1026 hPa Calm     97 % 0 mm
02:51 15.1 °C 14.6 °C 1026.3 hPa SSE 1.4 km/h 3.7 km/h 97 % 0 mm
02:52 15.1 °C 14.6 °C 1026.3 hPa SSE 1.3 km/h 5.6 km/h 97 % 0 mm
02:57 15.1 °C 14.6 °C 1026.3 hPa SE 4 km/h 6.4 km/h 97 % 0 mm
03:02 15.2 °C 14.7 °C 1026.3 hPa SE 1.1 km/h 7.4 km/h 97 % 0 mm
03:07 15.3 °C 14.8 °C 1025.6 hPa SE 0.6 km/h 3.7 km/h 97 % 0 mm
03:12 15.4 °C 15.1 °C 1025.6 hPa SE 0.3 km/h 1.6 km/h 98 % 0 mm
03:15 15.4 °C 15.1 °C 1025.6 hPa SE 1.4 km/h 3.7 km/h 98 % 0 mm
03:20 15.5 °C 15.2 °C 1025.6 hPa SE 4 km/h 7.4 km/h 98 % 0 mm
03:25 15.7 °C 15.3 °C 1025.3 hPa Calm   13 km/h 98 % 0 mm
03:30 15.7 °C 15.3 °C 1026 hPa West 3.9 km/h 9.3 km/h 98 % 0 mm
03:35 15.7 °C 15.4 °C 1026 hPa SSW 1.6 km/h 5.6 km/h 98 % 0 mm
03:40 15.7 °C 15.2 °C 1025.6 hPa Calm   5.6 km/h 97 % 0 mm
03:45 15.8 °C 15.3 °C 1026 hPa SE 2.4 km/h 5.6 km/h 97 % 0 mm
03:50 15.8 °C 15.3 °C 1026 hPa Calm     97 % 0 mm
03:55 15.8 °C 15.3 °C 1026 hPa Calm   1.9 km/h 97 % 0 mm
04:00 15.8 °C 15.3 °C 1026 hPa SSE 1.1 km/h 1.9 km/h 97 % 0 mm
04:05 15.8 °C 15.3 °C 1025.6 hPa Calm   1.6 km/h 97 % 0 mm
04:10 15.8 °C 15.3 °C 1026 hPa SE 0.6 km/h 1.9 km/h 97 % 0 mm
04:15 15.9 °C 15.4 °C 1026 hPa SE 0.2 km/h 3.7 km/h 97 % 0 mm
04:18 15.9 °C 15.4 °C 1025.6 hPa SE 1 km/h 8 km/h 97 % 0 mm
04:23 15.9 °C 15.4 °C 1025.6 hPa SSE 5 km/h 11.1 km/h 97 % 0 mm
04:28 16.1 °C 15.6 °C 1025.6 hPa SSE 1.6 km/h 4.8 km/h 97 % 0 mm
04:33 16.1 °C 15.6 °C 1025.6 hPa SE 3.1 km/h 14.5 km/h 97 % 0 mm
04:38 16.2 °C 15.7 °C 1025.6 hPa SE 0.8 km/h 3.7 km/h 97 % 0 mm
04:43 16.2 °C 15.7 °C 1025.6 hPa SSE 6 km/h 8 km/h 97 % 0 mm
04:48 16.3 °C 15.8 °C 1025.6 hPa SE 3.4 km/h 5.6 km/h 97 % 0 mm
04:53 16.3 °C 15.8 °C 1025.6 hPa Calm   1.9 km/h 97 % 0 mm
04:58 16.3 °C 15.8 °C 1025.6 hPa SSE 0.6 km/h 3.7 km/h 97 % 0 mm
05:03 16.3 °C 15.8 °C 1026 hPa South 3.2 km/h 9.3 km/h 97 % 0 mm
05:08 16.3 °C 15.8 °C 1026 hPa SSE 1.1 km/h 5.6 km/h 97 % 0 mm
05:13 16.4 °C 15.7 °C 1025.6 hPa SSE 0.5 km/h 1.9 km/h 96 % 0 mm
05:18 16.4 °C 15.9 °C 1025.6 hPa South 1.6 km/h 5.6 km/h 97 % 0 mm
05:23 16.5 °C 15.8 °C 1025.6 hPa Calm     96 % 0 mm
05:28 16.5 °C 15.8 °C 1025.6 hPa SE 1.6 km/h 5.6 km/h 96 % 0 mm
05:33 16.5 °C 15.8 °C 1025.6 hPa SSW 1 km/h 3.2 km/h 96 % 0 mm
05:38 16.5 °C 15.8 °C 1025.6 hPa Calm   1.9 km/h 96 % 0 mm
05:43 16.5 °C 15.8 °C 1025.6 hPa SSE 0.5 km/h 3.2 km/h 96 % 0 mm
05:48 16.5 °C 15.8 °C 1026 hPa SE 0.5 km/h 3.7 km/h 96 % 0 mm
05:53 16.4 °C 15.8 °C 1026 hPa Calm     96 % 0 mm
05:58 16.4 °C 15.8 °C 1025.6 hPa SSW 0.3 km/h 3.7 km/h 96 % 0 mm
06:04 16.4 °C 15.8 °C 1025.6 hPa Calm     96 % 0 mm
06:09 16.4 °C 15.7 °C 1026 hPa Calm     96 % 0 mm
06:14 16.4 °C 15.7 °C 1026 hPa Calm   1.6 km/h 96 % 0 mm
06:19 16.3 °C 15.7 °C 1026 hPa Calm   1.9 km/h 96 % 0 mm
06:24 16.3 °C 15.7 °C 1025.6 hPa Calm     96 % 0 mm
06:29 16.3 °C 15.7 °C 1026 hPa SSW 0.3 km/h 1.9 km/h 96 % 0 mm
06:34 16.3 °C 15.7 °C 1026 hPa Calm     96 % 0 mm
06:39 16.2 °C 15.6 °C 1026 hPa Calm     96 % 0 mm
06:44 16.2 °C 15.6 °C 1026 hPa Calm     96 % 0 mm
06:49 16.2 °C 15.6 °C 1025.6 hPa Calm     96 % 0 mm
06:54 16.2 °C 15.6 °C 1025.6 hPa Calm     96 % 0 mm
06:59 16.1 °C 15.5 °C 1025.6 hPa Calm     96 % 0 mm
07:04 16.1 °C 15.5 °C 1026 hPa Calm   1.9 km/h 96 % 0 mm
07:09 16.1 °C 15.5 °C 1026 hPa Calm     96 % 0 mm
07:14 16.1 °C 15.5 °C 1026 hPa Calm   1.9 km/h 96 % 0 mm
07:19 16.1 °C 15.5 °C 1026 hPa Calm   1.9 km/h 96 % 0 mm
07:24 16.1 °C 15.4 °C 1026 hPa Calm     96 % 0 mm
07:29 16.1 °C 15.4 °C 1026 hPa Calm     96 % 0 mm
07:34 16.1 °C 15.4 °C 1026 hPa Calm     96 % 0 mm
07:39 16 °C 15.4 °C 1026 hPa Calm     96 % 0 mm
07:44 16 °C 15.4 °C 1026 hPa Calm     96 % 0 mm
07:49 16 °C 15.4 °C 1026 hPa Calm     96 % 0 mm
07:54 16 °C 15.4 °C 1026 hPa Calm     96 % 0 mm
07:59 15.9 °C 15.3 °C 1026 hPa Calm   1.9 km/h 96 % 0 mm
08:04 15.9 °C 15.3 °C 1026 hPa Calm     96 % 0 mm
08:09 15.9 °C 15.3 °C 1026 hPa Calm     96 % 0 mm
08:14 16 °C 15.4 °C 1026 hPa Calm     96 % 0 mm
08:19 16.1 °C 15.4 °C 1026 hPa Calm     96 % 0 mm
08:24 16.1 °C 15.6 °C 1026 hPa Calm     97 % 0 mm
08:27 16.2 °C 15.7 °C 1026 hPa SSW 0.6 km/h 3.7 km/h 97 % 0 mm
08:32 16.2 °C 15.7 °C 1026 hPa SSE 0.8 km/h 1.9 km/h 97 % 0 mm
08:37 16.3 °C 15.8 °C 1026 hPa Calm   1.9 km/h 97 % 0 mm
08:42 16.4 °C 15.9 °C 1026 hPa South 0.6 km/h 3.7 km/h 97 % 0 mm
08:44 16.4 °C 15.9 °C 1026.3 hPa SSE 0.8 km/h 3.7 km/h 97 % 0 mm
08:49 16.6 °C 16.1 °C 1026.3 hPa SSE 2.6 km/h 5.6 km/h 97 % 0 mm
08:54 16.7 °C 16.2 °C 1026 hPa SSE 0.2 km/h 1.9 km/h 97 % 0 mm
08:59 16.8 °C 16.3 °C 1026 hPa South 1 km/h 3.7 km/h 97 % 0 mm
09:04 16.9 °C 16.4 °C 1026.3 hPa South 1.3 km/h 7.4 km/h 97 % 0 mm
09:09 17.1 °C 16.6 °C 1026 hPa South 1.4 km/h 5.6 km/h 97 % 0 mm
09:14 17.1 °C 16.6 °C 1026.3 hPa SSW 1.4 km/h 9.3 km/h 97 % 0 mm
09:19 17.2 °C 16.7 °C 1026.3 hPa SSW 1.9 km/h 5.6 km/h 97 % 0 mm
09:24 17.3 °C 16.8 °C 1026.3 hPa SSW 2.7 km/h 5.6 km/h 97 % 0 mm
09:29 17.4 °C 16.9 °C 1026.3 hPa South 2.1 km/h 5.6 km/h 97 % 0 mm
09:34 17.4 °C 16.9 °C 1026.3 hPa SE 1.1 km/h 5.6 km/h 97 % 0 mm
09:39 17.5 °C 17 °C 1026.3 hPa West 0.8 km/h 3.7 km/h 97 % 0 mm
09:44 17.6 °C 17.1 °C 1026.6 hPa SSW 2.3 km/h 5.6 km/h 97 % 0 mm
09:49 17.7 °C 17.2 °C 1026.6 hPa South 0.3 km/h 3.7 km/h 97 % 0 mm
09:54 17.8 °C 17.3 °C 1026.6 hPa South 1.1 km/h 4.8 km/h 97 % 0 mm
09:59 17.9 °C 17.4 °C 1026.6 hPa Calm   5.6 km/h 97 % 0 mm
10:04 18 °C 17.5 °C 1026.6 hPa SSE 2.6 km/h 5.6 km/h 97 % 0 mm
10:09 18.1 °C 17.6 °C 1026.6 hPa SW 0.3 km/h 1.9 km/h 97 % 0 mm
10:14 18.2 °C 17.7 °C 1026.6 hPa SW 3.4 km/h 6.4 km/h 97 % 0 mm
10:19 18.3 °C 17.7 °C 1026.6 hPa SW 3.7 km/h 5.6 km/h 96 % 0 mm
10:24 18.4 °C 17.8 °C 1026.6 hPa SSW 1.8 km/h 3.7 km/h 96 % 0 mm
10:29 18.6 °C 17.9 °C 1026.6 hPa East 0.2 km/h 1.9 km/h 96 % 0 mm
10:34 18.7 °C 18.1 °C 1026.6 hPa Calm   3.2 km/h 96 % 0 mm
10:39 18.8 °C 18 °C 1026.6 hPa WSW 2.6 km/h 5.6 km/h 95 % 0 mm
10:44 19 °C 18 °C 1026.3 hPa WSW 0.3 km/h   94 % 0 mm
10:50 19.3 °C 18.3 °C 1026.6 hPa WSW 1.3 km/h 5.6 km/h 94 % 0 mm
10:55 19.6 °C 18.4 °C 1026.6 hPa SSW 5.1 km/h 11.1 km/h 93 % 0 mm
11:00 19.8 °C 18.3 °C 1026.3 hPa WSW 3.9 km/h 9.3 km/h 91 % 0 mm
11:05 20.1 °C 18.2 °C 1026.6 hPa SW 4.7 km/h 7.4 km/h 89 % 0 mm
11:10 20.3 °C 18.2 °C 1026.3 hPa SW 2.4 km/h 6.4 km/h 88 % 0 mm
11:15 20.6 °C 18.5 °C 1026.6 hPa WNW 3.2 km/h 8 km/h 88 % 0 mm
11:20 20.8 °C 18.4 °C 1026.3 hPa SSW 4.2 km/h 9.3 km/h 86 % 0 mm
11:25 21 °C 18.2 °C 1026.6 hPa WSW 7.1 km/h 11.1 km/h 84 % 0 mm
11:30 21.2 °C 18.3 °C 1026.6 hPa WSW 1.6 km/h 11.1 km/h 84 % 0 mm
11:35 21.2 °C 18.2 °C 1026.6 hPa WNW 0.3 km/h 5.6 km/h 83 % 0 mm
11:40 21.2 °C 18 °C 1026.6 hPa West 3.9 km/h 6.4 km/h 82 % 0 mm
11:45 21.2 °C 18 °C 1026.6 hPa SW 1.4 km/h 5.6 km/h 82 % 0 mm
11:50 21.2 °C 17.9 °C 1026.3 hPa WNW 5 km/h 9.7 km/h 82 % 0.25 mm
11:55 21.1 °C 17.9 °C 1026.6 hPa WNW 2.6 km/h 5.6 km/h 82 % 0.25 mm
12:00 20.9 °C 17.9 °C 1026.3 hPa WNW 2.7 km/h 4.8 km/h 83 % 0.25 mm
12:05 20.8 °C 17.8 °C 1026.3 hPa WNW 1 km/h 3.7 km/h 83 % 0.25 mm
12:10 20.7 °C 17.9 °C 1026.3 hPa Calm   3.7 km/h 84 % 0.25 mm
12:15 20.6 °C 17.8 °C 1026 hPa Calm   3.7 km/h 84 % 0.25 mm
12:21 20.5 °C 18.1 °C 1026 hPa Calm     86 % 0.25 mm
12:26 20.5 °C 18.3 °C 1026 hPa Calm   4.8 km/h 87 % 0 mm
12:31 20.6 °C 18.1 °C 1025.6 hPa WSW 4.8 km/h 8 km/h 86 % 0 mm
12:36 20.6 °C 18 °C 1025.6 hPa South 3.2 km/h 11.3 km/h 85 % 0 mm
12:41 20.8 °C 18 °C 1024.9 hPa South 1.6 km/h 11.3 km/h 84 % 0 mm
12:42 20.9 °C 18.1 °C 1025.3 hPa SSW 3.9 km/h 5.6 km/h 84 % 0.25 mm
12:47 21.1 °C 17.9 °C 1025.3 hPa SE 2.4 km/h 14.8 km/h 82 % 0.25 mm
12:52 21.2 °C 17.8 °C 1025.3 hPa SSE 4.7 km/h 16.7 km/h 81 % 0 mm
12:57 21.3 °C 17.9 °C 1025.3 hPa SSE 5.1 km/h 16.1 km/h 81 % 0 mm
13:02 21.3 °C 17.7 °C 1025.3 hPa SSW 6.8 km/h 11.1 km/h 80 % 0 mm
13:08 21.3 °C 17.7 °C 1024.9 hPa SSW 8.4 km/h 13 km/h 80 % 0 mm
13:13 21.4 °C 17.8 °C 1024.9 hPa SSW 3.1 km/h 11.1 km/h 80 % 0 mm
13:18 21.4 °C 17.8 °C 1024.9 hPa SSW 1.1 km/h 5.6 km/h 80 % 0 mm
13:23 21.4 °C 17.7 °C 1024.9 hPa SSE 3.1 km/h 9.7 km/h 79 % 0 mm
13:28 21.5 °C 17.5 °C 1024.9 hPa SE 1.9 km/h 5.6 km/h 78 % 0 mm
13:33 21.6 °C 17.8 °C 1024.9 hPa SSW 4.5 km/h 11.1 km/h 79 % 0 mm
13:38 21.6 °C 17.6 °C 1024.9 hPa SSW 2.3 km/h 5.6 km/h 78 % 0 mm
13:43 21.7 °C 17.5 °C 1024.3 hPa SE 2.4 km/h 8 km/h 77 % 0 mm
13:44 21.8 °C 17.6 °C 1024.3 hPa SSE 4 km/h 7.4 km/h 77 % 0 mm
13:49 21.9 °C 17.4 °C 1024.6 hPa SSW 3.1 km/h 8 km/h 76 % 0 mm
13:54 22.1 °C 17.6 °C 1024.6 hPa SSW 5.5 km/h 9.3 km/h 76 % 0 mm
13:59 22.3 °C 17.9 °C 1024.6 hPa SSW 4.5 km/h 8 km/h 76 % 0 mm
14:04 22.6 °C 17.9 °C 1024.3 hPa SSW 6.9 km/h 11.1 km/h 75 % 0 mm
14:09 22.8 °C 17.9 °C 1024.6 hPa South 3.1 km/h 11.1 km/h 74 % 0 mm
14:14 22.9 °C 17.6 °C 1024.6 hPa SSW 2.9 km/h 11.1 km/h 72 % 0 mm
14:19 23.1 °C 17.7 °C 1024.6 hPa SSW 6.1 km/h 13 km/h 72 % 0 mm
14:24 23 °C 17.7 °C 1024.6 hPa SSW 2.6 km/h 5.6 km/h 72 % 0 mm
14:29 23 °C 17.9 °C 1024.6 hPa WSW 8.4 km/h 11.3 km/h 73 % 0 mm
14:34 23.1 °C 17.9 °C 1024.6 hPa SW 7.1 km/h 9.7 km/h 73 % 0 mm
14:39 23.1 °C 17.8 °C 1024.3 hPa SW 4.2 km/h 9.3 km/h 72 % 0 mm
14:44 23.2 °C 17.8 °C 1024.3 hPa SSW 4.3 km/h 9.7 km/h 72 % 0 mm
14:49 23.2 °C 17.6 °C 1024.3 hPa South 6.3 km/h 11.3 km/h 71 % 0 mm
14:54 23.1 °C 17.6 °C 1023.9 hPa SE 3.4 km/h 11.1 km/h 71 % 0 mm
14:59 23.1 °C 17.7 °C 1024.3 hPa South 3.2 km/h 5.6 km/h 72 % 0 mm
15:04 23.1 °C 17.5 °C 1024.3 hPa SSW 5.3 km/h 11.3 km/h 71 % 0 mm
15:09 22.9 °C 17.4 °C 1024.3 hPa SSW 5.8 km/h 8 km/h 71 % 0 mm
15:14 22.9 °C 17.6 °C 1024.3 hPa SW 6 km/h 11.3 km/h 72 % 0 mm
15:19 22.8 °C 17.4 °C 1024.3 hPa SW 4.2 km/h 9.3 km/h 72 % 0 mm
15:24 22.7 °C 17.3 °C 1024.3 hPa South 1.3 km/h 3.7 km/h 72 % 0 mm
15:29 22.6 °C 17.3 °C 1024.3 hPa SSW 7.7 km/h 13 km/h 72 % 0 mm
15:34 22.5 °C 17.4 °C 1024.3 hPa SSE 4.8 km/h 7.4 km/h 73 % 0 mm
15:39 22.3 °C 17.1 °C 1024.3 hPa South 5.3 km/h 11.1 km/h 72 % 0 mm
15:44 22.2 °C 17.2 °C 1024.3 hPa South 2.4 km/h 5.6 km/h 73 % 0 mm
15:49 22.1 °C 17.3 °C 1024.3 hPa SSW 3.4 km/h 11.3 km/h 74 % 0 mm
15:54 22 °C 16.9 °C 1024.3 hPa South 2.9 km/h 5.6 km/h 73 % 0 mm
16:00 21.9 °C 16.9 °C 1023.9 hPa SSE 1.3 km/h 3.7 km/h 73 % 0 mm
16:05 21.8 °C 16.8 °C 1023.9 hPa SE 3.2 km/h 11.1 km/h 73 % 0 mm
16:10 21.8 °C 16.7 °C 1023.9 hPa SSW 2.7 km/h 9.3 km/h 73 % 0 mm
16:15 21.7 °C 16.9 °C 1023.9 hPa WSW 1.1 km/h 7.4 km/h 74 % 0 mm
16:20 21.7 °C 16.8 °C 1023.9 hPa Calm   1.6 km/h 74 % 0 mm
16:25 21.7 °C 16.8 °C 1023.9 hPa SE 0.3 km/h 3.7 km/h 74 % 0 mm
16:30 21.6 °C 17 °C 1023.9 hPa SSE 1.4 km/h 5.6 km/h 75 % 0 mm
16:35 21.6 °C 16.7 °C 1023.9 hPa SE 2.3 km/h 6.4 km/h 74 % 0 mm
16:40 21.4 °C 16.6 °C 1023.9 hPa South 5.5 km/h 8 km/h 74 % 0 mm
16:45 21.4 °C 16.6 °C 1023.9 hPa South 1.3 km/h 3.7 km/h 74 % 0 mm
16:50 21.3 °C 16.5 °C 1023.9 hPa SSW 0.2 km/h 3.7 km/h 74 % 0 mm
16:55 21.3 °C 16.7 °C 1023.9 hPa SSE 8.5 km/h 14.8 km/h 75 % 0 mm
17:00 21.3 °C 16.7 °C 1023.9 hPa SSE 2.3 km/h 5.6 km/h 75 % 0 mm
17:05 21.2 °C 16.6 °C 1023.6 hPa SSW 1.4 km/h 5.6 km/h 75 % 0 mm
17:10 21.2 °C 16.6 °C 1023.6 hPa South 1.4 km/h 5.6 km/h 75 % 0 mm
17:15 21.1 °C 16.7 °C 1023.9 hPa South 1 km/h 5.6 km/h 76 % 0 mm
17:20 21 °C 16.6 °C 1023.9 hPa SSW 1.6 km/h 5.6 km/h 76 % 0 mm
17:26 20.9 °C 16.5 °C 1023.9 hPa Calm   3.2 km/h 76 % 0 mm
17:31 20.8 °C 16.4 °C 1023.9 hPa Calm   8 km/h 76 % 0 mm
17:36 20.7 °C 16.5 °C 1023.9 hPa Calm   9.7 km/h 77 % 0 mm
17:41 20.5 °C 16.3 °C 1023.9 hPa Calm   9.7 km/h 77 % 0 mm
17:46 20.3 °C 16.4 °C 1023.9 hPa SSE 1.6 km/h 8 km/h 78 % 0 mm
17:51 20.3 °C 16.3 °C 1023.9 hPa Calm   4.8 km/h 78 % 0 mm
17:56 20.2 °C 16.2 °C 1023.9 hPa SSE 1.6 km/h 8 km/h 78 % 0 mm
18:01 20 °C 16.2 °C 1023.9 hPa SSE 2.3 km/h 5.6 km/h 79 % 0 mm
18:06 19.8 °C 16.3 °C 1023.9 hPa SE 1.9 km/h 7.4 km/h 80 % 0 mm
18:11 19.7 °C 16.3 °C 1023.9 hPa SE 0.5 km/h 3.7 km/h 81 % 0 mm
18:16 19.5 °C 16.2 °C 1023.9 hPa SE 3.2 km/h 7.4 km/h 81 % 0 mm
18:21 19.4 °C 16.2 °C 1023.9 hPa ESE 3.1 km/h 11.1 km/h 82 % 0 mm
18:26 19.2 °C 16.3 °C 1023.9 hPa SSE 1 km/h 3.7 km/h 83 % 0 mm
18:31 19.1 °C 16.2 °C 1023.9 hPa SSE 3.2 km/h 7.4 km/h 83 % 0 mm
18:36 19 °C 16.2 °C 1023.9 hPa SSE 2.1 km/h 5.6 km/h 84 % 0 mm
18:41 18.9 °C 16.1 °C 1023.9 hPa SSE 1.8 km/h 5.6 km/h 84 % 0 mm
18:46 18.8 °C 16.2 °C 1024.3 hPa SSE 1.6 km/h 5.6 km/h 85 % 0 mm
18:51 18.7 °C 16.2 °C 1023.6 hPa SE 0.2 km/h 1.9 km/h 85 % 0 mm
18:56 18.6 °C 16.2 °C 1023.6 hPa SSE 0.2 km/h 11.1 km/h 86 % 0 mm
19:01 18.5 °C 16.1 °C 1023.9 hPa Calm   1.9 km/h 86 % 0 mm
19:06 18.4 °C 16.2 °C 1023.9 hPa South 0.5 km/h 5.6 km/h 87 % 0 mm
19:11 18.3 °C 16.1 °C 1023.9 hPa SSW 0.3 km/h 7.4 km/h 87 % 0 mm
19:16 18.3 °C 16.1 °C 1023.9 hPa SE 2.6 km/h 4.8 km/h 87 % 0 mm
19:21 18.2 °C 16.2 °C 1023.9 hPa South 0.3 km/h 1.9 km/h 88 % 0 mm
19:26 18.2 °C 16.2 °C 1023.9 hPa SSW 1 km/h 5.6 km/h 88 % 0 mm
19:31 18.1 °C 16.1 °C 1023.6 hPa SSW 0.6 km/h 4.8 km/h 88 % 0 mm
19:37 18.1 °C 16.1 °C 1023.9 hPa SSW 0.5 km/h 5.6 km/h 88 % 0 mm
19:42 18 °C 16.2 °C 1023.9 hPa South 0.6 km/h 1.9 km/h 89 % 0 mm
19:47 17.9 °C 16.1 °C 1023.9 hPa SW 1.1 km/h 3.7 km/h 89 % 0 mm
19:52 17.9 °C 16.1 °C 1023.6 hPa SW 0.5 km/h 3.7 km/h 89 % 0 mm
19:57 17.8 °C 16.2 °C 1023.9 hPa SSW 1.3 km/h 5.6 km/h 90 % 0 mm
20:02 17.8 °C 16.1 °C 1023.9 hPa SSW 0.6 km/h 3.2 km/h 90 % 0 mm
20:07 17.7 °C 16.1 °C 1023.6 hPa SSW 0.2 km/h 1.9 km/h 90 % 0 mm
20:12 17.7 °C 16.1 °C 1023.2 hPa SSW 0.6 km/h 3.7 km/h 90 % 0 mm
20:17 17.7 °C 16 °C 1023.6 hPa SSW 0.8 km/h 3.7 km/h 90 % 0 mm
20:22 17.6 °C 16.1 °C 1023.6 hPa South 1.3 km/h 5.6 km/h 91 % 0 mm
20:27 17.6 °C 16.1 °C 1023.6 hPa South 1 km/h 5.6 km/h 91 % 0 mm
20:32 17.5 °C 16 °C 1023.6 hPa South 1.1 km/h 5.6 km/h 91 % 0 mm
20:37 17.5 °C 16 °C 1023.2 hPa SSE 0.6 km/h 3.2 km/h 91 % 0 mm
20:42 17.4 °C 16.1 °C 1022.9 hPa SSE 0.5 km/h 3.7 km/h 92 % 0 mm
20:47 17.4 °C 16.1 °C 1022.9 hPa South 1.4 km/h 3.7 km/h 92 % 0 mm
20:52 17.4 °C 16.1 °C 1022.9 hPa South 1.4 km/h 5.6 km/h 92 % 0 mm
20:57 17.4 °C 16.1 °C 1023.2 hPa SSW 0.3 km/h 3.7 km/h 92 % 0 mm
21:02 17.3 °C 16.2 °C 1023.6 hPa SSW 0.8 km/h 5.6 km/h 93 % 0 mm
21:07 17.3 °C 16.2 °C 1023.6 hPa South 0.6 km/h 4.8 km/h 93 % 0 mm
21:13 17.3 °C 16.1 °C 1023.6 hPa SE 0.2 km/h 3.7 km/h 93 % 0 mm
21:18 17.3 °C 16.1 °C 1023.6 hPa South 1.3 km/h 5.6 km/h 93 % 0 mm
21:23 17.2 °C 16.1 °C 1023.6 hPa SSW 2.6 km/h 5.6 km/h 93 % 0 mm
21:28 17.2 °C 16.1 °C 1023.6 hPa SSW 1.4 km/h 3.7 km/h 93 % 0 mm
21:33 17.2 °C 16 °C 1023.2 hPa SSW 0.8 km/h 3.7 km/h 93 % 0.25 mm
21:38 17.2 °C 16 °C 1023.6 hPa SSW 0.2 km/h 1.9 km/h 93 % 0.25 mm
21:43 17.1 °C 15.9 °C 1023.6 hPa SSW 0.3 km/h 1.9 km/h 93 % 0.25 mm
21:48 17.1 °C 15.9 °C 1023.9 hPa Calm     93 % 0.25 mm
21:53 17.1 °C 15.9 °C 1023.9 hPa Calm   1.9 km/h 93 % 0.25 mm
21:58 17 °C 15.8 °C 1023.9 hPa SSW 0.2 km/h 3.7 km/h 93 % 0.25 mm
22:03 17 °C 15.8 °C 1023.2 hPa Calm     93 % 0.25 mm
22:08 17 °C 16 °C 1023.2 hPa SSW 0.2 km/h 1.9 km/h 94 % 0.25 mm
22:13 17 °C 16 °C 1023.6 hPa SSW 0.2 km/h 1.6 km/h 94 % 0.25 mm
22:18 16.9 °C 15.9 °C 1023.6 hPa SSW 0.2 km/h 1.9 km/h 94 % 0.25 mm
22:23 16.9 °C 15.9 °C 1023.6 hPa SSW 0.3 km/h 1.9 km/h 94 % 0.51 mm
22:28 16.9 °C 15.9 °C 1023.2 hPa SSW 0.5 km/h 1.9 km/h 94 % 0.51 mm
22:33 16.9 °C 15.9 °C 1022.9 hPa Calm   1.6 km/h 94 % 0.25 mm
22:38 16.9 °C 15.9 °C 1023.2 hPa SSW 0.3 km/h 1.9 km/h 94 % 0.25 mm
22:43 16.9 °C 16.1 °C 1022.9 hPa Calm   1.9 km/h 95 % 0.25 mm
22:48 16.9 °C 16.1 °C 1022.9 hPa Calm   1.6 km/h 95 % 0.25 mm
22:53 16.9 °C 16.1 °C 1022.9 hPa Calm     95 % 0.25 mm
22:58 16.9 °C 16.1 °C 1022.9 hPa SSW 0.3 km/h 3.7 km/h 95 % 0.25 mm
23:03 16.9 °C 16.1 °C 1022.9 hPa Calm     95 % 0.25 mm
23:08 16.9 °C 16.1 °C 1022.9 hPa SSW 0.2 km/h 1.9 km/h 95 % 0.51 mm
23:14 16.9 °C 16.1 °C 1023.2 hPa Calm     95 % 0.51 mm
23:19 16.9 °C 16.1 °C 1023.2 hPa Calm     95 % 0.51 mm
23:25 16.9 °C 16.1 °C 1014.4 hPa Calm     95 % 0.25 mm
23:33 16.8 °C 16 °C 1022.6 hPa Calm     95 % 0.25 mm
23:36 16.8 °C 16 °C 1022.6 hPa Calm     95 % 0.25 mm
23:41 16.8 °C 16 °C 1022.6 hPa Calm   1.9 km/h 95 % 0.25 mm
23:46 16.8 °C 16 °C 1022.6 hPa WSW 1 km/h 3.7 km/h 95 % 0.51 mm
23:51 16.8 °C 16 °C 1022.9 hPa WSW 0.3 km/h 1.9 km/h 95 % 0.51 mm
23:56 16.8 °C 16 °C 1022.6 hPa WSW 0.6 km/h 3.7 km/h 95 % 0.51 mm
Crab Meadow Weather
Compliments of Weather Underground - 3 mb

Script developed by  Jim McMurry - jmcmurry@mwt.net Adapted for the template by  Wim van der Kuil - Leuven-Template.eu

Lightning: The average number of deaths from lightning is more than 100 a year with several more deaths from lightning related fires. Lightning injuries account for 3-5 times than those of lightning deaths.